sensor_id;sensor_type;location;lat;lon;timestamp;P1;durP1;ratioP1;P2;durP2;ratioP2
8413;SDS011;4244;48.684;9.028;2022-10-17T00:00:39;3.03;;;2.80;;
8413;SDS011;4244;48.684;9.028;2022-10-17T00:03:05;4.00;;;3.00;;
8413;SDS011;4244;48.684;9.028;2022-10-17T00:05:31;4.00;;;2.50;;
8413;SDS011;4244;48.684;9.028;2022-10-17T00:07:56;3.80;;;2.70;;
8413;SDS011;4244;48.684;9.028;2022-10-17T00:10:22;2.90;;;2.53;;
8413;SDS011;4244;48.684;9.028;2022-10-17T00:12:49;4.53;;;2.33;;
8413;SDS011;4244;48.684;9.028;2022-10-17T00:15:16;2.30;;;2.10;;
8413;SDS011;4244;48.684;9.028;2022-10-17T00:17:43;2.83;;;2.53;;
8413;SDS011;4244;48.684;9.028;2022-10-17T00:20:09;3.50;;;2.47;;
8413;SDS011;4244;48.684;9.028;2022-10-17T00:22:35;2.60;;;2.40;;
8413;SDS011;4244;48.684;9.028;2022-10-17T00:25:00;2.53;;;2.10;;
8413;SDS011;4244;48.684;9.028;2022-10-17T00:27:26;2.70;;;2.20;;
8413;SDS011;4244;48.684;9.028;2022-10-17T00:29:51;2.23;;;2.03;;
8413;SDS011;4244;48.684;9.028;2022-10-17T00:32:18;3.50;;;2.77;;
8413;SDS011;4244;48.684;9.028;2022-10-17T00:34:45;2.63;;;2.43;;
8413;SDS011;4244;48.684;9.028;2022-10-17T00:37:11;3.20;;;2.90;;
8413;SDS011;4244;48.684;9.028;2022-10-17T00:39:36;2.93;;;2.57;;
8413;SDS011;4244;48.684;9.028;2022-10-17T00:42:02;2.50;;;2.30;;
8413;SDS011;4244;48.684;9.028;2022-10-17T00:46:53;3.37;;;2.50;;
8413;SDS011;4244;48.684;9.028;2022-10-17T00:49:20;3.33;;;2.60;;
8413;SDS011;4244;48.684;9.028;2022-10-17T00:51:54;3.63;;;3.10;;
8413;SDS011;4244;48.684;9.028;2022-10-17T00:54:30;3.00;;;2.70;;
8413;SDS011;4244;48.684;9.028;2022-10-17T00:57:01;2.47;;;2.27;;
8413;SDS011;4244;48.684;9.028;2022-10-17T00:59:27;6.00;;;2.70;;
8413;SDS011;4244;48.684;9.028;2022-10-17T01:02:04;3.90;;;2.87;;
8413;SDS011;4244;48.684;9.028;2022-10-17T01:04:31;3.13;;;2.33;;
8413;SDS011;4244;48.684;9.028;2022-10-17T01:06:57;3.83;;;2.40;;
8413;SDS011;4244;48.684;9.028;2022-10-17T01:09:23;3.10;;;2.80;;
8413;SDS011;4244;48.684;9.028;2022-10-17T01:11:58;3.90;;;2.63;;
8413;SDS011;4244;48.684;9.028;2022-10-17T01:14:56;2.83;;;2.27;;
8413;SDS011;4244;48.684;9.028;2022-10-17T01:17:44;2.80;;;2.40;;
8413;SDS011;4244;48.684;9.028;2022-10-17T01:20:28;3.00;;;2.70;;
8413;SDS011;4244;48.684;9.028;2022-10-17T01:30:55;3.10;;;2.63;;
8413;SDS011;4244;48.684;9.028;2022-10-17T01:36:34;3.17;;;2.50;;
8413;SDS011;4244;48.684;9.028;2022-10-17T01:39:19;3.10;;;2.70;;
8413;SDS011;4244;48.684;9.028;2022-10-17T01:47:16;2.73;;;2.40;;
8413;SDS011;4244;48.684;9.028;2022-10-17T01:49:43;3.50;;;2.70;;
8413;SDS011;4244;48.684;9.028;2022-10-17T01:52:21;2.77;;;2.57;;
8413;SDS011;4244;48.684;9.028;2022-10-17T01:54:52;3.13;;;2.77;;
8413;SDS011;4244;48.684;9.028;2022-10-17T01:57:31;2.70;;;2.50;;
8413;SDS011;4244;48.684;9.028;2022-10-17T02:00:17;2.60;;;2.40;;
8413;SDS011;4244;48.684;9.028;2022-10-17T02:02:45;3.00;;;2.70;;
8413;SDS011;4244;48.684;9.028;2022-10-17T02:05:13;2.80;;;2.60;;
8413;SDS011;4244;48.684;9.028;2022-10-17T02:07:41;2.83;;;2.47;;
8413;SDS011;4244;48.684;9.028;2022-10-17T02:10:09;4.20;;;2.90;;
8413;SDS011;4244;48.684;9.028;2022-10-17T02:12:58;3.43;;;3.13;;
8413;SDS011;4244;48.684;9.028;2022-10-17T02:23:37;3.57;;;2.70;;
8413;SDS011;4244;48.684;9.028;2022-10-17T02:29:08;2.90;;;2.57;;
8413;SDS011;4244;48.684;9.028;2022-10-17T02:31:41;3.20;;;2.70;;
8413;SDS011;4244;48.684;9.028;2022-10-17T02:34:53;2.67;;;2.47;;
8413;SDS011;4244;48.684;9.028;2022-10-17T02:37:08;2.43;;;2.23;;
8413;SDS011;4244;48.684;9.028;2022-10-17T02:39:36;2.50;;;2.30;;
8413;SDS011;4244;48.684;9.028;2022-10-17T02:42:04;3.77;;;2.80;;
8413;SDS011;4244;48.684;9.028;2022-10-17T02:44:31;2.73;;;2.50;;
8413;SDS011;4244;48.684;9.028;2022-10-17T02:47:02;2.67;;;2.30;;
8413;SDS011;4244;48.684;9.028;2022-10-17T02:49:38;6.07;;;2.40;;
8413;SDS011;4244;48.684;9.028;2022-10-17T02:54:46;2.60;;;2.40;;
8413;SDS011;4244;48.684;9.028;2022-10-17T02:59:46;3.40;;;2.60;;
8413;SDS011;4244;48.684;9.028;2022-10-17T03:02:13;3.00;;;2.70;;
8413;SDS011;4244;48.684;9.028;2022-10-17T03:04:47;3.10;;;2.80;;
8413;SDS011;4244;48.684;9.028;2022-10-17T03:07:14;2.67;;;2.43;;
8413;SDS011;4244;48.684;9.028;2022-10-17T03:09:39;3.43;;;2.60;;
8413;SDS011;4244;48.684;9.028;2022-10-17T03:12:05;2.83;;;2.53;;
8413;SDS011;4244;48.684;9.028;2022-10-17T03:14:31;4.43;;;2.93;;
8413;SDS011;4244;48.684;9.028;2022-10-17T03:16:56;3.37;;;2.60;;
8413;SDS011;4244;48.684;9.028;2022-10-17T03:19:22;3.80;;;2.63;;
8413;SDS011;4244;48.684;9.028;2022-10-17T03:21:48;2.40;;;2.20;;
8413;SDS011;4244;48.684;9.028;2022-10-17T03:24:13;3.50;;;3.00;;
8413;SDS011;4244;48.684;9.028;2022-10-17T03:26:40;2.93;;;2.63;;
8413;SDS011;4244;48.684;9.028;2022-10-17T03:29:05;2.93;;;2.63;;
8413;SDS011;4244;48.684;9.028;2022-10-17T03:31:31;4.30;;;2.80;;
8413;SDS011;4244;48.684;9.028;2022-10-17T03:33:56;3.80;;;2.97;;
8413;SDS011;4244;48.684;9.028;2022-10-17T03:36:22;2.83;;;2.57;;
8413;SDS011;4244;48.684;9.028;2022-10-17T03:38:48;3.00;;;2.80;;
8413;SDS011;4244;48.684;9.028;2022-10-17T03:41:13;3.67;;;3.27;;
8413;SDS011;4244;48.684;9.028;2022-10-17T03:43:39;2.80;;;2.50;;
8413;SDS011;4244;48.684;9.028;2022-10-17T03:46:05;3.43;;;2.80;;
8413;SDS011;4244;48.684;9.028;2022-10-17T03:48:31;2.67;;;2.43;;
8413;SDS011;4244;48.684;9.028;2022-10-17T03:51:01;3.50;;;3.20;;
8413;SDS011;4244;48.684;9.028;2022-10-17T03:53:29;2.73;;;2.50;;
8413;SDS011;4244;48.684;9.028;2022-10-17T03:55:54;3.10;;;2.80;;
8413;SDS011;4244;48.684;9.028;2022-10-17T03:58:20;3.13;;;2.83;;
8413;SDS011;4244;48.684;9.028;2022-10-17T04:00:46;2.57;;;2.37;;
8413;SDS011;4244;48.684;9.028;2022-10-17T04:03:12;2.73;;;2.53;;
8413;SDS011;4244;48.684;9.028;2022-10-17T04:05:37;2.57;;;2.37;;
8413;SDS011;4244;48.684;9.028;2022-10-17T04:08:03;2.93;;;2.67;;
8413;SDS011;4244;48.684;9.028;2022-10-17T04:10:28;2.83;;;2.63;;
8413;SDS011;4244;48.684;9.028;2022-10-17T04:12:54;2.97;;;2.50;;
8413;SDS011;4244;48.684;9.028;2022-10-17T04:15:20;4.80;;;2.63;;
8413;SDS011;4244;48.684;9.028;2022-10-17T04:17:46;3.20;;;2.90;;
8413;SDS011;4244;48.684;9.028;2022-10-17T04:20:11;5.23;;;2.67;;
8413;SDS011;4244;48.684;9.028;2022-10-17T04:22:37;2.60;;;2.40;;
8413;SDS011;4244;48.684;9.028;2022-10-17T04:25:03;4.77;;;3.07;;
8413;SDS011;4244;48.684;9.028;2022-10-17T04:27:28;5.77;;;2.63;;
8413;SDS011;4244;48.684;9.028;2022-10-17T04:29:54;3.40;;;3.10;;
8413;SDS011;4244;48.684;9.028;2022-10-17T04:32:20;2.63;;;2.43;;
8413;SDS011;4244;48.684;9.028;2022-10-17T04:34:49;3.80;;;3.10;;
8413;SDS011;4244;48.684;9.028;2022-10-17T04:37:14;2.93;;;2.70;;
8413;SDS011;4244;48.684;9.028;2022-10-17T04:39:40;3.10;;;2.70;;
8413;SDS011;4244;48.684;9.028;2022-10-17T04:42:06;3.60;;;2.50;;
8413;SDS011;4244;48.684;9.028;2022-10-17T04:44:31;2.93;;;2.60;;
8413;SDS011;4244;48.684;9.028;2022-10-17T04:46:59;2.60;;;2.40;;
8413;SDS011;4244;48.684;9.028;2022-10-17T04:49:24;2.83;;;2.60;;
8413;SDS011;4244;48.684;9.028;2022-10-17T04:51:50;3.13;;;2.83;;
8413;SDS011;4244;48.684;9.028;2022-10-17T04:54:16;3.20;;;2.27;;
8413;SDS011;4244;48.684;9.028;2022-10-17T04:56:41;3.80;;;3.40;;
8413;SDS011;4244;48.684;9.028;2022-10-17T04:59:07;3.97;;;3.57;;
8413;SDS011;4244;48.684;9.028;2022-10-17T05:01:32;4.53;;;4.13;;
8413;SDS011;4244;48.684;9.028;2022-10-17T05:03:58;4.63;;;4.03;;
8413;SDS011;4244;48.684;9.028;2022-10-17T05:06:24;4.23;;;3.93;;
8413;SDS011;4244;48.684;9.028;2022-10-17T05:08:54;3.90;;;3.60;;
8413;SDS011;4244;48.684;9.028;2022-10-17T05:11:23;4.20;;;3.80;;
8413;SDS011;4244;48.684;9.028;2022-10-17T05:13:51;4.00;;;3.47;;
8413;SDS011;4244;48.684;9.028;2022-10-17T05:16:21;3.90;;;3.33;;
8413;SDS011;4244;48.684;9.028;2022-10-17T05:18:48;3.77;;;3.47;;
8413;SDS011;4244;48.684;9.028;2022-10-17T05:21:15;3.00;;;2.70;;
8413;SDS011;4244;48.684;9.028;2022-10-17T05:23:40;3.93;;;3.00;;
8413;SDS011;4244;48.684;9.028;2022-10-17T05:26:06;3.57;;;3.27;;
8413;SDS011;4244;48.684;9.028;2022-10-17T05:28:32;4.17;;;3.47;;
8413;SDS011;4244;48.684;9.028;2022-10-17T05:31:02;5.37;;;2.93;;
8413;SDS011;4244;48.684;9.028;2022-10-17T05:33:31;3.73;;;3.10;;
8413;SDS011;4244;48.684;9.028;2022-10-17T05:35:57;2.90;;;2.60;;
8413;SDS011;4244;48.684;9.028;2022-10-17T05:38:23;3.47;;;3.17;;
8413;SDS011;4244;48.684;9.028;2022-10-17T05:40:50;3.70;;;2.93;;
8413;SDS011;4244;48.684;9.028;2022-10-17T05:43:15;5.20;;;3.23;;
8413;SDS011;4244;48.684;9.028;2022-10-17T05:45:41;4.40;;;4.00;;
8413;SDS011;4244;48.684;9.028;2022-10-17T05:48:07;4.83;;;3.43;;
8413;SDS011;4244;48.684;9.028;2022-10-17T05:50:33;4.80;;;4.23;;
8413;SDS011;4244;48.684;9.028;2022-10-17T05:52:59;3.43;;;2.90;;
8413;SDS011;4244;48.684;9.028;2022-10-17T05:55:25;4.30;;;3.50;;
8413;SDS011;4244;48.684;9.028;2022-10-17T05:57:51;8.37;;;3.40;;
8413;SDS011;4244;48.684;9.028;2022-10-17T06:00:17;4.13;;;3.60;;
8413;SDS011;4244;48.684;9.028;2022-10-17T06:02:44;3.93;;;3.00;;
8413;SDS011;4244;48.684;9.028;2022-10-17T06:05:10;3.90;;;3.60;;
8413;SDS011;4244;48.684;9.028;2022-10-17T06:07:37;3.60;;;3.17;;
8413;SDS011;4244;48.684;9.028;2022-10-17T06:10:02;4.00;;;3.30;;
8413;SDS011;4244;48.684;9.028;2022-10-17T06:12:28;4.10;;;3.17;;
8413;SDS011;4244;48.684;9.028;2022-10-17T06:14:54;4.30;;;2.80;;
8413;SDS011;4244;48.684;9.028;2022-10-17T06:17:20;3.70;;;3.40;;
8413;SDS011;4244;48.684;9.028;2022-10-17T06:19:45;3.30;;;2.97;;
8413;SDS011;4244;48.684;9.028;2022-10-17T06:22:11;4.70;;;3.20;;
8413;SDS011;4244;48.684;9.028;2022-10-17T06:24:37;4.67;;;3.10;;
8413;SDS011;4244;48.684;9.028;2022-10-17T06:27:03;4.20;;;3.57;;
8413;SDS011;4244;48.684;9.028;2022-10-17T06:29:29;3.93;;;3.60;;
8413;SDS011;4244;48.684;9.028;2022-10-17T06:31:54;7.60;;;3.87;;
8413;SDS011;4244;48.684;9.028;2022-10-17T06:34:20;4.80;;;3.50;;
8413;SDS011;4244;48.684;9.028;2022-10-17T06:36:46;6.50;;;4.07;;
8413;SDS011;4244;48.684;9.028;2022-10-17T06:39:12;5.00;;;3.80;;
8413;SDS011;4244;48.684;9.028;2022-10-17T06:41:37;5.03;;;3.37;;
8413;SDS011;4244;48.684;9.028;2022-10-17T06:44:05;5.33;;;4.20;;
8413;SDS011;4244;48.684;9.028;2022-10-17T06:46:35;4.13;;;3.57;;
8413;SDS011;4244;48.684;9.028;2022-10-17T06:49:01;5.00;;;3.40;;
8413;SDS011;4244;48.684;9.028;2022-10-17T06:51:28;4.10;;;3.30;;
8413;SDS011;4244;48.684;9.028;2022-10-17T06:53:55;3.67;;;3.37;;
8413;SDS011;4244;48.684;9.028;2022-10-17T06:56:22;3.30;;;3.00;;
8413;SDS011;4244;48.684;9.028;2022-10-17T06:58:48;3.97;;;3.10;;
8413;SDS011;4244;48.684;9.028;2022-10-17T07:01:15;5.30;;;3.87;;
8413;SDS011;4244;48.684;9.028;2022-10-17T07:03:41;3.63;;;3.03;;
8413;SDS011;4244;48.684;9.028;2022-10-17T07:06:07;4.23;;;3.60;;
8413;SDS011;4244;48.684;9.028;2022-10-17T07:08:35;3.40;;;3.00;;
8413;SDS011;4244;48.684;9.028;2022-10-17T07:11:07;3.17;;;2.87;;
8413;SDS011;4244;48.684;9.028;2022-10-17T07:13:34;3.47;;;3.17;;
8413;SDS011;4244;48.684;9.028;2022-10-17T07:16:00;5.37;;;3.63;;
8413;SDS011;4244;48.684;9.028;2022-10-17T07:18:26;3.50;;;3.00;;
8413;SDS011;4244;48.684;9.028;2022-10-17T07:20:52;4.80;;;3.53;;
8413;SDS011;4244;48.684;9.028;2022-10-17T07:23:18;4.07;;;3.53;;
8413;SDS011;4244;48.684;9.028;2022-10-17T07:25:44;4.30;;;3.40;;
8413;SDS011;4244;48.684;9.028;2022-10-17T07:28:10;4.30;;;3.50;;
8413;SDS011;4244;48.684;9.028;2022-10-17T07:30:36;3.50;;;3.20;;
8413;SDS011;4244;48.684;9.028;2022-10-17T07:33:01;3.80;;;3.07;;
8413;SDS011;4244;48.684;9.028;2022-10-17T07:35:27;4.73;;;3.10;;
8413;SDS011;4244;48.684;9.028;2022-10-17T07:37:53;3.43;;;3.13;;
8413;SDS011;4244;48.684;9.028;2022-10-17T07:40:19;3.63;;;3.20;;
8413;SDS011;4244;48.684;9.028;2022-10-17T07:42:45;6.37;;;3.27;;
8413;SDS011;4244;48.684;9.028;2022-10-17T07:45:11;3.50;;;3.20;;
8413;SDS011;4244;48.684;9.028;2022-10-17T07:47:40;2.83;;;2.60;;
8413;SDS011;4244;48.684;9.028;2022-10-17T07:50:05;2.97;;;2.77;;
8413;SDS011;4244;48.684;9.028;2022-10-17T07:52:32;4.07;;;3.43;;
8413;SDS011;4244;48.684;9.028;2022-10-17T07:54:57;3.80;;;3.07;;
8413;SDS011;4244;48.684;9.028;2022-10-17T07:57:24;3.87;;;2.97;;
8413;SDS011;4244;48.684;9.028;2022-10-17T07:59:52;2.77;;;2.57;;
8413;SDS011;4244;48.684;9.028;2022-10-17T08:02:24;3.30;;;2.90;;
8413;SDS011;4244;48.684;9.028;2022-10-17T08:04:51;4.33;;;3.23;;
8413;SDS011;4244;48.684;9.028;2022-10-17T08:07:17;2.60;;;2.40;;
8413;SDS011;4244;48.684;9.028;2022-10-17T08:09:43;4.13;;;3.10;;
8413;SDS011;4244;48.684;9.028;2022-10-17T08:12:09;3.10;;;2.30;;
8413;SDS011;4244;48.684;9.028;2022-10-17T08:14:35;4.50;;;2.60;;
8413;SDS011;4244;48.684;9.028;2022-10-17T08:17:01;2.57;;;2.37;;
8413;SDS011;4244;48.684;9.028;2022-10-17T08:19:26;3.10;;;2.43;;
8413;SDS011;4244;48.684;9.028;2022-10-17T08:21:52;4.63;;;2.60;;
8413;SDS011;4244;48.684;9.028;2022-10-17T08:24:18;3.80;;;2.60;;
8413;SDS011;4244;48.684;9.028;2022-10-17T08:26:44;3.10;;;2.37;;
8413;SDS011;4244;48.684;9.028;2022-10-17T08:29:14;6.37;;;2.40;;
8413;SDS011;4244;48.684;9.028;2022-10-17T08:31:41;2.97;;;2.17;;
8413;SDS011;4244;48.684;9.028;2022-10-17T08:34:07;3.43;;;2.30;;
8413;SDS011;4244;48.684;9.028;2022-10-17T08:36:32;3.03;;;1.73;;
8413;SDS011;4244;48.684;9.028;2022-10-17T08:38:58;3.23;;;2.17;;
8413;SDS011;4244;48.684;9.028;2022-10-17T08:46:44;2.63;;;2.43;;
8413;SDS011;4244;48.684;9.028;2022-10-17T08:49:15;3.23;;;2.30;;
8413;SDS011;4244;48.684;9.028;2022-10-17T08:51:50;3.33;;;2.10;;
8413;SDS011;4244;48.684;9.028;2022-10-17T08:54:19;6.67;;;2.20;;
8413;SDS011;4244;48.684;9.028;2022-10-17T08:56:50;3.53;;;2.30;;
8413;SDS011;4244;48.684;9.028;2022-10-17T08:59:20;2.10;;;1.90;;
8413;SDS011;4244;48.684;9.028;2022-10-17T09:02:33;2.30;;;2.10;;
8413;SDS011;4244;48.684;9.028;2022-10-17T09:18:59;2.27;;;2.07;;
8413;SDS011;4244;48.684;9.028;2022-10-17T09:21:32;2.60;;;2.40;;
8413;SDS011;4244;48.684;9.028;2022-10-17T09:24:10;3.60;;;2.67;;
8413;SDS011;4244;48.684;9.028;2022-10-17T09:26:45;2.60;;;2.40;;
8413;SDS011;4244;48.684;9.028;2022-10-17T09:29:23;2.53;;;2.30;;
8413;SDS011;4244;48.684;9.028;2022-10-17T09:32:00;2.27;;;2.07;;
8413;SDS011;4244;48.684;9.028;2022-10-17T09:34:28;2.77;;;2.57;;
8413;SDS011;4244;48.684;9.028;2022-10-17T09:36:56;2.40;;;2.20;;
8413;SDS011;4244;48.684;9.028;2022-10-17T09:39:23;3.30;;;2.33;;
8413;SDS011;4244;48.684;9.028;2022-10-17T09:41:56;2.10;;;1.90;;
8413;SDS011;4244;48.684;9.028;2022-10-17T09:44:32;2.30;;;2.00;;
8413;SDS011;4244;48.684;9.028;2022-10-17T09:49:51;2.67;;;2.47;;
8413;SDS011;4244;48.684;9.028;2022-10-17T09:52:38;2.50;;;2.30;;
8413;SDS011;4244;48.684;9.028;2022-10-17T09:55:04;3.03;;;2.83;;
8413;SDS011;4244;48.684;9.028;2022-10-17T10:00:27;2.50;;;2.30;;
8413;SDS011;4244;48.684;9.028;2022-10-17T10:05:38;3.33;;;2.37;;
8413;SDS011;4244;48.684;9.028;2022-10-17T10:08:10;2.40;;;2.20;;
8413;SDS011;4244;48.684;9.028;2022-10-17T10:10:38;3.30;;;2.30;;
8413;SDS011;4244;48.684;9.028;2022-10-17T10:18:29;32.30;;;14.10;;
8413;SDS011;4244;48.684;9.028;2022-10-17T10:23:42;18.23;;;10.10;;
8413;SDS011;4244;48.684;9.028;2022-10-17T10:26:22;16.93;;;8.83;;
8413;SDS011;4244;48.684;9.028;2022-10-17T10:28:57;11.87;;;6.47;;
8413;SDS011;4244;48.684;9.028;2022-10-17T10:31:44;7.40;;;5.20;;
8413;SDS011;4244;48.684;9.028;2022-10-17T10:34:31;10.13;;;5.07;;
8413;SDS011;4244;48.684;9.028;2022-10-17T10:36:58;10.27;;;4.60;;
8413;SDS011;4244;48.684;9.028;2022-10-17T10:39:44;4.30;;;2.93;;
8413;SDS011;4244;48.684;9.028;2022-10-17T10:42:24;3.27;;;2.40;;
8413;SDS011;4244;48.684;9.028;2022-10-17T10:44:51;2.63;;;2.43;;
8413;SDS011;4244;48.684;9.028;2022-10-17T10:47:19;2.40;;;2.00;;
8413;SDS011;4244;48.684;9.028;2022-10-17T10:49:46;3.17;;;2.47;;
8413;SDS011;4244;48.684;9.028;2022-10-17T10:52:17;3.07;;;2.60;;
8413;SDS011;4244;48.684;9.028;2022-10-17T10:55:14;2.80;;;2.07;;
8413;SDS011;4244;48.684;9.028;2022-10-17T10:57:44;2.30;;;2.10;;
8413;SDS011;4244;48.684;9.028;2022-10-17T11:00:14;3.30;;;2.20;;
8413;SDS011;4244;48.684;9.028;2022-10-17T11:02:51;3.90;;;2.40;;
8413;SDS011;4244;48.684;9.028;2022-10-17T11:08:35;5.00;;;2.20;;
8413;SDS011;4244;48.684;9.028;2022-10-17T11:11:11;2.70;;;2.10;;
8413;SDS011;4244;48.684;9.028;2022-10-17T11:13:57;3.27;;;2.40;;
8413;SDS011;4244;48.684;9.028;2022-10-17T11:16:31;3.10;;;2.40;;
8413;SDS011;4244;48.684;9.028;2022-10-17T11:21:56;2.93;;;2.63;;
8413;SDS011;4244;48.684;9.028;2022-10-17T11:24:29;2.17;;;1.97;;
8413;SDS011;4244;48.684;9.028;2022-10-17T11:27:29;2.10;;;1.87;;
8413;SDS011;4244;48.684;9.028;2022-10-17T11:29:56;4.30;;;2.07;;
8413;SDS011;4244;48.684;9.028;2022-10-17T11:32:33;4.03;;;2.20;;
8413;SDS011;4244;48.684;9.028;2022-10-17T11:35:06;2.50;;;2.30;;
8413;SDS011;4244;48.684;9.028;2022-10-17T11:37:45;3.40;;;2.13;;
8413;SDS011;4244;48.684;9.028;2022-10-17T11:40:33;2.47;;;2.00;;
8413;SDS011;4244;48.684;9.028;2022-10-17T11:43:03;3.70;;;2.70;;
8413;SDS011;4244;48.684;9.028;2022-10-17T11:45:47;2.67;;;2.13;;
8413;SDS011;4244;48.684;9.028;2022-10-17T11:48:39;3.80;;;2.03;;
8413;SDS011;4244;48.684;9.028;2022-10-17T11:51:25;2.47;;;2.20;;
8413;SDS011;4244;48.684;9.028;2022-10-17T11:53:59;5.33;;;2.33;;
8413;SDS011;4244;48.684;9.028;2022-10-17T11:56:48;3.33;;;2.53;;
8413;SDS011;4244;48.684;9.028;2022-10-17T12:02:40;3.07;;;2.00;;
8413;SDS011;4244;48.684;9.028;2022-10-17T12:08:17;2.33;;;2.10;;
8413;SDS011;4244;48.684;9.028;2022-10-17T12:16:35;2.90;;;2.57;;
8413;SDS011;4244;48.684;9.028;2022-10-17T12:21:25;2.37;;;2.17;;
8413;SDS011;4244;48.684;9.028;2022-10-17T12:23:52;3.83;;;2.20;;
8413;SDS011;4244;48.684;9.028;2022-10-17T12:26:24;5.57;;;2.90;;
8413;SDS011;4244;48.684;9.028;2022-10-17T12:28:51;3.83;;;2.33;;
8413;SDS011;4244;48.684;9.028;2022-10-17T12:38:48;5.97;;;2.40;;
8413;SDS011;4244;48.684;9.028;2022-10-17T12:41:16;3.30;;;2.40;;
8413;SDS011;4244;48.684;9.028;2022-10-17T12:44:49;3.57;;;2.20;;
8413;SDS011;4244;48.684;9.028;2022-10-17T12:57:18;2.53;;;1.93;;
8413;SDS011;4244;48.684;9.028;2022-10-17T12:59:45;3.70;;;2.40;;
8413;SDS011;4244;48.684;9.028;2022-10-17T13:02:15;4.73;;;2.20;;
8413;SDS011;4244;48.684;9.028;2022-10-17T13:04:43;3.23;;;2.00;;
8413;SDS011;4244;48.684;9.028;2022-10-17T13:07:17;4.20;;;2.57;;
8413;SDS011;4244;48.684;9.028;2022-10-17T13:09:45;5.57;;;2.27;;
8413;SDS011;4244;48.684;9.028;2022-10-17T13:12:12;3.83;;;2.00;;
8413;SDS011;4244;48.684;9.028;2022-10-17T13:14:42;2.63;;;2.00;;
8413;SDS011;4244;48.684;9.028;2022-10-17T13:17:24;2.00;;;1.90;;
8413;SDS011;4244;48.684;9.028;2022-10-17T13:19:51;3.13;;;2.00;;
8413;SDS011;4244;48.684;9.028;2022-10-17T13:22:21;4.37;;;2.70;;
8413;SDS011;4244;48.684;9.028;2022-10-17T13:25:03;4.30;;;2.20;;
8413;SDS011;4244;48.684;9.028;2022-10-17T13:27:40;2.50;;;2.30;;
8413;SDS011;4244;48.684;9.028;2022-10-17T13:32:52;3.30;;;2.50;;
8413;SDS011;4244;48.684;9.028;2022-10-17T13:35:23;2.33;;;2.13;;
8413;SDS011;4244;48.684;9.028;2022-10-17T13:37:54;3.60;;;2.73;;
8413;SDS011;4244;48.684;9.028;2022-10-17T13:40:24;2.50;;;2.30;;
8413;SDS011;4244;48.684;9.028;2022-10-17T13:42:52;3.10;;;2.73;;
8413;SDS011;4244;48.684;9.028;2022-10-17T13:47:51;2.63;;;2.40;;
8413;SDS011;4244;48.684;9.028;2022-10-17T13:50:59;4.23;;;2.20;;
8413;SDS011;4244;48.684;9.028;2022-10-17T13:55:37;3.23;;;2.33;;
8413;SDS011;4244;48.684;9.028;2022-10-17T13:58:12;2.27;;;2.07;;
8413;SDS011;4244;48.684;9.028;2022-10-17T14:00:41;2.87;;;1.93;;
8413;SDS011;4244;48.684;9.028;2022-10-17T14:03:08;2.30;;;2.10;;
8413;SDS011;4244;48.684;9.028;2022-10-17T14:05:34;2.40;;;2.20;;
8413;SDS011;4244;48.684;9.028;2022-10-17T14:08:01;3.73;;;2.27;;
8413;SDS011;4244;48.684;9.028;2022-10-17T14:10:38;2.13;;;1.93;;
8413;SDS011;4244;48.684;9.028;2022-10-17T14:13:04;2.23;;;2.03;;
8413;SDS011;4244;48.684;9.028;2022-10-17T14:15:33;2.70;;;2.37;;
8413;SDS011;4244;48.684;9.028;2022-10-17T14:18:03;3.13;;;2.10;;
8413;SDS011;4244;48.684;9.028;2022-10-17T14:20:31;4.93;;;2.07;;
8413;SDS011;4244;48.684;9.028;2022-10-17T14:22:58;1.83;;;1.70;;
8413;SDS011;4244;48.684;9.028;2022-10-17T14:30:45;3.87;;;2.27;;
8413;SDS011;4244;48.684;9.028;2022-10-17T14:33:17;2.73;;;2.10;;
8413;SDS011;4244;48.684;9.028;2022-10-17T14:35:50;2.47;;;2.20;;
8413;SDS011;4244;48.684;9.028;2022-10-17T14:38:17;2.83;;;1.90;;
8413;SDS011;4244;48.684;9.028;2022-10-17T14:40:54;4.80;;;2.27;;
8413;SDS011;4244;48.684;9.028;2022-10-17T14:43:31;3.17;;;2.10;;
8413;SDS011;4244;48.684;9.028;2022-10-17T14:45:57;4.17;;;2.27;;
8413;SDS011;4244;48.684;9.028;2022-10-17T14:48:24;4.03;;;2.40;;
8413;SDS011;4244;48.684;9.028;2022-10-17T14:51:06;5.20;;;1.87;;
8413;SDS011;4244;48.684;9.028;2022-10-17T14:53:43;3.57;;;1.83;;
8413;SDS011;4244;48.684;9.028;2022-10-17T14:56:24;2.50;;;1.93;;
8413;SDS011;4244;48.684;9.028;2022-10-17T14:58:58;2.40;;;1.93;;
8413;SDS011;4244;48.684;9.028;2022-10-17T15:01:26;4.40;;;1.80;;
8413;SDS011;4244;48.684;9.028;2022-10-17T15:03:52;2.23;;;2.03;;
8413;SDS011;4244;48.684;9.028;2022-10-17T15:06:20;2.60;;;2.00;;
8413;SDS011;4244;48.684;9.028;2022-10-17T15:08:55;2.67;;;2.20;;
8413;SDS011;4244;48.684;9.028;2022-10-17T15:11:21;4.43;;;2.20;;
8413;SDS011;4244;48.684;9.028;2022-10-17T15:13:48;3.30;;;2.10;;
8413;SDS011;4244;48.684;9.028;2022-10-17T15:16:15;2.73;;;2.40;;
8413;SDS011;4244;48.684;9.028;2022-10-17T15:18:43;3.17;;;2.30;;
8413;SDS011;4244;48.684;9.028;2022-10-17T15:21:12;2.70;;;2.20;;
8413;SDS011;4244;48.684;9.028;2022-10-17T15:23:39;4.13;;;2.50;;
8413;SDS011;4244;48.684;9.028;2022-10-17T15:26:11;4.07;;;2.37;;
8413;SDS011;4244;48.684;9.028;2022-10-17T15:28:47;3.30;;;2.00;;
8413;SDS011;4244;48.684;9.028;2022-10-17T15:31:15;2.80;;;2.17;;
8413;SDS011;4244;48.684;9.028;2022-10-17T15:33:45;3.40;;;2.43;;
8413;SDS011;4244;48.684;9.028;2022-10-17T15:36:18;2.80;;;2.00;;
8413;SDS011;4244;48.684;9.028;2022-10-17T15:38:44;3.77;;;2.30;;
8413;SDS011;4244;48.684;9.028;2022-10-17T15:41:10;2.80;;;2.60;;
8413;SDS011;4244;48.684;9.028;2022-10-17T15:43:36;2.93;;;2.63;;
8413;SDS011;4244;48.684;9.028;2022-10-17T15:46:08;3.40;;;2.50;;
8413;SDS011;4244;48.684;9.028;2022-10-17T15:48:41;3.87;;;2.47;;
8413;SDS011;4244;48.684;9.028;2022-10-17T15:51:08;3.67;;;2.33;;
8413;SDS011;4244;48.684;9.028;2022-10-17T15:53:34;3.63;;;2.50;;
8413;SDS011;4244;48.684;9.028;2022-10-17T15:55:59;3.60;;;2.30;;
8413;SDS011;4244;48.684;9.028;2022-10-17T15:58:26;3.33;;;2.87;;
8413;SDS011;4244;48.684;9.028;2022-10-17T16:00:58;3.33;;;2.77;;
8413;SDS011;4244;48.684;9.028;2022-10-17T16:03:23;3.50;;;2.20;;
8413;SDS011;4244;48.684;9.028;2022-10-17T16:05:49;2.20;;;2.00;;
8413;SDS011;4244;48.684;9.028;2022-10-17T16:08:15;3.00;;;2.47;;
8413;SDS011;4244;48.684;9.028;2022-10-17T16:10:40;3.80;;;2.87;;
8413;SDS011;4244;48.684;9.028;2022-10-17T16:13:09;4.10;;;2.97;;
8413;SDS011;4244;48.684;9.028;2022-10-17T16:15:47;7.13;;;2.80;;
8413;SDS011;4244;48.684;9.028;2022-10-17T16:18:13;5.10;;;2.73;;
8413;SDS011;4244;48.684;9.028;2022-10-17T16:20:39;6.73;;;2.90;;
8413;SDS011;4244;48.684;9.028;2022-10-17T16:23:05;3.13;;;2.70;;
8413;SDS011;4244;48.684;9.028;2022-10-17T16:25:32;8.80;;;2.90;;
8413;SDS011;4244;48.684;9.028;2022-10-17T16:27:59;8.23;;;3.20;;
8413;SDS011;4244;48.684;9.028;2022-10-17T16:30:26;4.33;;;3.33;;
8413;SDS011;4244;48.684;9.028;2022-10-17T16:32:52;6.20;;;3.40;;
8413;SDS011;4244;48.684;9.028;2022-10-17T16:35:20;4.97;;;3.30;;
8413;SDS011;4244;48.684;9.028;2022-10-17T16:37:47;6.83;;;4.23;;
8413;SDS011;4244;48.684;9.028;2022-10-17T16:40:13;8.47;;;5.87;;
8413;SDS011;4244;48.684;9.028;2022-10-17T16:42:38;7.30;;;6.30;;
8413;SDS011;4244;48.684;9.028;2022-10-17T16:45:04;13.53;;;7.90;;
8413;SDS011;4244;48.684;9.028;2022-10-17T16:47:30;14.57;;;7.60;;
8413;SDS011;4244;48.684;9.028;2022-10-17T16:49:56;12.57;;;6.90;;
8413;SDS011;4244;48.684;9.028;2022-10-17T16:52:22;11.90;;;5.03;;
8413;SDS011;4244;48.684;9.028;2022-10-17T16:54:47;12.37;;;5.20;;
8413;SDS011;4244;48.684;9.028;2022-10-17T16:57:13;7.10;;;4.60;;
8413;SDS011;4244;48.684;9.028;2022-10-17T16:59:39;8.40;;;4.47;;
8413;SDS011;4244;48.684;9.028;2022-10-17T17:02:04;8.57;;;4.97;;
8413;SDS011;4244;48.684;9.028;2022-10-17T17:04:30;7.53;;;4.20;;
8413;SDS011;4244;48.684;9.028;2022-10-17T17:06:56;5.97;;;4.23;;
8413;SDS011;4244;48.684;9.028;2022-10-17T17:09:21;10.03;;;3.77;;
8413;SDS011;4244;48.684;9.028;2022-10-17T17:11:47;5.20;;;3.73;;
8413;SDS011;4244;48.684;9.028;2022-10-17T17:14:15;3.70;;;3.37;;
8413;SDS011;4244;48.684;9.028;2022-10-17T17:16:41;5.00;;;3.83;;
8413;SDS011;4244;48.684;9.028;2022-10-17T17:19:09;4.37;;;3.70;;
8413;SDS011;4244;48.684;9.028;2022-10-17T17:21:36;5.40;;;3.60;;
8413;SDS011;4244;48.684;9.028;2022-10-17T17:24:02;4.07;;;3.70;;
8413;SDS011;4244;48.684;9.028;2022-10-17T17:26:29;4.13;;;3.70;;
8413;SDS011;4244;48.684;9.028;2022-10-17T17:28:58;4.33;;;3.87;;
8413;SDS011;4244;48.684;9.028;2022-10-17T17:31:25;5.10;;;3.80;;